Map

Track Data

SID SEASON NUMBER BASIN SUBBASIN NAME ISO_TIME NATURE LAT LON WMO_WIND WMO_PRES WMO_AGENCY TRACK_TYPE DIST2LAND LANDFALL IFLAG USA_AGENCY USA_ATCF_ID USA_LAT USA_LON USA_RECORD USA_STATUS USA_WIND USA_PRES USA_SSHS USA_R34_NE USA_R34_SE USA_R34_SW USA_R34_NW USA_R50_NE USA_R50_SE USA_R50_SW USA_R50_NW USA_R64_NE USA_R64_SE USA_R64_SW USA_R64_NW USA_POCI USA_ROCI USA_RMW USA_EYE TOKYO_LAT TOKYO_LON TOKYO_GRADE TOKYO_WIND TOKYO_PRES TOKYO_R50_DIR TOKYO_R50_LONG TOKYO_R50_SHORT TOKYO_R30_DIR TOKYO_R30_LONG TOKYO_R30_SHORT TOKYO_LAND CMA_LAT CMA_LON CMA_CAT CMA_WIND CMA_PRES HKO_LAT HKO_LON HKO_CAT HKO_WIND HKO_PRES NEWDELHI_LAT NEWDELHI_LON NEWDELHI_GRADE NEWDELHI_WIND NEWDELHI_PRES NEWDELHI_CI NEWDELHI_DP NEWDELHI_POCI REUNION_LAT REUNION_LON REUNION_TYPE REUNION_WIND REUNION_PRES REUNION_TNUM REUNION_CI REUNION_RMW REUNION_R34_NE REUNION_R34_SE REUNION_R34_SW REUNION_R34_NW REUNION_R50_NE REUNION_R50_SE REUNION_R50_SW REUNION_R50_NW REUNION_R64_NE REUNION_R64_SE REUNION_R64_SW REUNION_R64_NW BOM_LAT BOM_LON BOM_TYPE BOM_WIND BOM_PRES BOM_TNUM BOM_CI BOM_RMW BOM_R34_NE BOM_R34_SE BOM_R34_SW BOM_R34_NW BOM_R50_NE BOM_R50_SE BOM_R50_SW BOM_R50_NW BOM_R64_NE BOM_R64_SE BOM_R64_SW BOM_R64_NW BOM_ROCI BOM_POCI BOM_EYE BOM_POS_METHOD BOM_PRES_METHOD NADI_LAT NADI_LON NADI_CAT NADI_WIND NADI_PRES WELLINGTON_LAT WELLINGTON_LON WELLINGTON_WIND WELLINGTON_PRES DS824_LAT DS824_LON DS824_STAGE DS824_WIND DS824_PRES TD9636_LAT TD9636_LON TD9636_STAGE TD9636_WIND TD9636_PRES TD9635_LAT TD9635_LON TD9635_WIND TD9635_PRES TD9635_ROCI NEUMANN_LAT NEUMANN_LON NEUMANN_CLASS NEUMANN_WIND NEUMANN_PRES MLC_LAT MLC_LON MLC_CLASS MLC_WIND MLC_PRES USA_GUST BOM_GUST BOM_GUST_PER REUNION_GUST REUNION_GUST_PER USA_SEAHGT USA_SEARAD_NE USA_SEARAD_SE USA_SEARAD_SW USA_SEARAD_NW STORM_SPEED STORM_DIR
1982293N09257 1982 95 EP MM TARA 1982-10-19 18:00:00 TS 9.40000 -103.300 25 hurdat_epa main 905 905 O_________O___ hurdat_epa EP191982 9.40000 -103.300 TD 25 -1 9.40000 -103.300 1 25 18 268
1982293N09257 1982 95 EP MM TARA 1982-10-19 21:00:00 TS 9.36382 -104.207 main 945 945 P_________P___ EP191982 9.36820 -104.215 TD 27 -1 9.35066 -104.183 1 27 17 267
1982293N09257 1982 95 EP MM TARA 1982-10-20 00:00:00 TS 9.30000 -105.000 30 hurdat_epa main 990 990 O_________O___ hurdat_epa EP191982 9.30000 -105.000 TD 30 -1 9.30000 -105.000 1 30 14 263
1982293N09257 1982 95 EP MM TARA 1982-10-20 03:00:00 TS 9.20116 -105.610 main 1029 1029 P_________P___ EP191982 9.18460 -105.580 TD 30 -1 9.25081 -105.701 1 30 12 261
1982293N09257 1982 95 EP MM TARA 1982-10-20 06:00:00 TS 9.12787 -106.152 30 hurdat_epa main 1068 1068 O_________P___ hurdat_epa EP191982 9.10000 -106.100 TD 30 -1 9.21149 -106.309 1 30 12 267
1982293N09257 1982 95 EP MM TARA 1982-10-20 09:00:00 TS 9.14350 -106.772 main 1089 1082 P_________P___ EP191982 9.12750 -106.742 TD 30 -1 9.19149 -106.862 1 30 12 273
1982293N09257 1982 95 EP MM TARA 1982-10-20 12:00:00 TS 9.20000 -107.400 30 hurdat_epa main 1102 1102 O_________O___ hurdat_epa EP191982 9.20000 -107.400 TD 30 -1 9.20000 -107.400 1 30 12 274
1982293N09257 1982 95 EP MM TARA 1982-10-20 15:00:00 TS 9.22904 -108.005 main 1128 1128 P_________P___ EP191982 9.24240 -108.015 TD 30 -1 9.18897 -107.975 1 30 12 274
1982293N09257 1982 95 EP MM TARA 1982-10-20 18:00:00 TS 9.27861 -108.586 30 hurdat_epa main 1148 1148 O_________P___ hurdat_epa EP191982 9.30000 -108.600 TD 30 -1 9.21445 -108.544 1 30 11 276
1982293N09257 1982 95 EP MM TARA 1982-10-20 21:00:00 TS 9.33741 -109.136 main 1174 1170 P_________P___ EP191982 9.34731 -109.143 TD 30 -1 9.30771 -109.116 1 30 11 281
1982293N09257 1982 95 EP MM TARA 1982-10-21 00:00:00 TS 9.50000 -109.700 30 hurdat_epa main 1190 1187 O_________O___ hurdat_epa EP191982 9.50000 -109.700 TD 30 -1 9.50000 -109.700 1 30 13 293
1982293N09257 1982 95 EP MM TARA 1982-10-21 03:00:00 TS 9.83760 -110.332 main 1201 1192 P_________P___ EP191982 9.84751 -110.342 TD 30 -1 9.80786 -110.303 1 30 15 302
1982293N09257 1982 95 EP MM TARA 1982-10-21 06:00:00 TS 10.2787 -110.980 30 hurdat_epa main 1198 1192 O_________P___ hurdat_epa EP191982 10.3000 -111.000 TD 30 -1 10.2146 -110.920 1 30 15 305
1982293N09257 1982 95 EP MM TARA 1982-10-21 09:00:00 TS 10.7121 -111.589 main 1199 1191 P_________P___ EP191982 10.7198 -111.600 TD 30 -1 10.6890 -111.553 1 30 15 308
1982293N09257 1982 95 EP MM TARA 1982-10-21 12:00:00 TS 11.2000 -112.200 30 hurdat_epa main 1196 1191 O_________O___ hurdat_epa EP191982 11.2000 -112.200 TD 30 -1 11.2000 -112.200 1 30 16 311
1982293N09257 1982 95 EP MM TARA 1982-10-21 15:00:00 TS 11.7861 -112.846 main 1191 1190 P_________P___ EP191982 11.7999 -112.835 TD 30 -1 11.7450 -112.880 1 30 18 312
1982293N09257 1982 95 EP MM TARA 1982-10-21 18:00:00 TS 12.3775 -113.518 30 hurdat_epa main 1197 1197 O_________P___ hurdat_epa EP191982 12.4000 -113.500 TD 30 -1 12.3100 -113.571 1 30 17 309
1982293N09257 1982 95 EP MM TARA 1982-10-21 21:00:00 TS 12.8881 -114.219 main 1203 1187 P_________P___ EP191982 12.9025 -114.208 TD 30 -1 12.8450 -114.252 1 30 16 304
1982293N09257 1982 95 EP MM TARA 1982-10-22 00:00:00 TS 13.3000 -114.900 30 hurdat_epa main 1192 1186 O_________O___ hurdat_epa EP191982 13.3000 -114.900 TD 30 -1 13.3000 -114.900 1 30 15 299
1982293N09257 1982 95 EP MM TARA 1982-10-22 03:00:00 TS 13.5940 -115.516 main 1191 1191 P_________P___ EP191982 13.5873 -115.530 TD 30 -1 13.6142 -115.471 1 31 13 294
1982293N09257 1982 95 EP MM TARA 1982-10-22 06:00:00 TS 13.8115 -116.077 30 hurdat_epa main 1204 1200 O_________P___ hurdat_epa EP191982 13.8000 -116.100 TD 30 -1 13.8460 -116.009 1 32 11 292
1982293N09257 1982 95 EP MM TARA 1982-10-22 09:00:00 TS 14.0073 -116.592 main 1214 1211 P_________P___ EP191982 13.9998 -116.608 TD 32 -1 14.0298 -116.543 1 33 11 291
1982293N09257 1982 95 EP MM TARA 1982-10-22 12:00:00 TS 14.2000 -117.100 35 hurdat_epa main 1227 1224 O_________O___ hurdat_epa EP191982 14.2000 -117.100 TS 35 0 14.2000 -117.100 2 35 11 294
1982293N09257 1982 95 EP MM TARA 1982-10-22 15:00:00 TS 14.4507 -117.638 main 1233 1233 P_________P___ EP191982 14.4572 -117.613 TS 40 0 14.4312 -117.713 2 37 12 294
1982293N09257 1982 95 EP MM TARA 1982-10-22 18:00:00 TS 14.6880 -118.239 45 hurdat_epa main 1258 1258 O_________P___ hurdat_epa EP191982 14.7000 -118.200 TS 45 0 14.6520 -118.355 2 40 13 288
1982293N09257 1982 95 EP MM TARA 1982-10-22 21:00:00 TS 14.8718 -118.956 main 1302 1302 P_________P___ EP191982 14.8802 -118.935 TS 45 0 14.8467 -119.019 2 42 14 282
1982293N09257 1982 95 EP MM TARA 1982-10-23 00:00:00 TS 15.0000 -119.700 45 hurdat_epa main 1344 1344 O_________O___ hurdat_epa EP191982 15.0000 -119.700 TS 45 0 15.0000 -119.700 2 45 14 278
1982293N09257 1982 95 EP MM TARA 1982-10-23 03:00:00 TS 15.0708 -120.371 main 1379 1379 P_________P___ EP191982 15.0645 -120.350 TS 42 0 15.0895 -120.435 2 42 13 275
1982293N09257 1982 95 EP MM TARA 1982-10-23 06:00:00 TS 15.1096 -121.044 40 hurdat_epa main 1419 1419 O_________P___ hurdat_epa EP191982 15.1000 -121.000 TS 40 0 15.1383 -121.176 2 40 14 273
1982293N09257 1982 95 EP MM TARA 1982-10-23 09:00:00 TS 15.1547 -121.810 main 1467 1467 P_________P___ EP191982 15.1503 -121.787 TS 37 0 15.1678 -121.879 2 37 14 274
1982293N09257 1982 95 EP MM TARA 1982-10-23 12:00:00 TS 15.2000 -122.500 35 hurdat_epa main 1518 1518 O_________O___ hurdat_epa EP191982 15.2000 -122.500 TS 35 0 15.2000 -122.500 2 35 11 274
1982293N09257 1982 95 EP MM TARA 1982-10-23 15:00:00 TS 15.2390 -122.959 main 1556 1555 P_________P___ EP191982 15.2421 -122.953 TS 37 0 15.2299 -122.979 2 36 8 277
1982293N09257 1982 95 EP MM TARA 1982-10-23 18:00:00 TS 15.2933 -123.319 40 hurdat_epa main 1571 1571 O_________P___ hurdat_epa EP191982 15.3000 -123.300 TS 40 0 15.2734 -123.376 2 37 7 280
1982293N09257 1982 95 EP MM TARA 1982-10-23 21:00:00 TS 15.3719 -123.709 main 1594 1594 P_________P___ EP191982 15.3774 -123.700 TS 40 0 15.3552 -123.735 2 38 8 285
1982293N09257 1982 95 EP MM TARA 1982-10-24 00:00:00 TS 15.5000 -124.100 40 hurdat_epa main 1618 1618 O_________O___ hurdat_epa EP191982 15.5000 -124.100 TS 40 0 15.5000 -124.100 2 40 8 292
1982293N09257 1982 95 EP MM TARA 1982-10-24 03:00:00 TS 15.6750 -124.503 main 1635 1635 P_________P___ EP191982 15.6548 -124.485 TS 40 0 15.7355 -124.555 2 41 9 298
1982293N09257 1982 95 EP MM TARA 1982-10-24 06:00:00 TS 15.9332 -124.930 40 hurdat_epa main 1654 1654 O_________P___ hurdat_epa EP191982 15.9000 -124.900 TS 40 0 16.0328 -125.022 2 42 11 306
1982293N09257 1982 95 EP MM TARA 1982-10-24 09:00:00 TS 16.3047 -125.419 main 1663 1655 P_________P___ EP191982 16.2851 -125.400 TS 42 0 16.3636 -125.477 2 43 12 309
1982293N09257 1982 95 EP MM TARA 1982-10-24 12:00:00 TS 16.7000 -125.900 45 hurdat_epa main 1662 1659 O_________O___ hurdat_epa EP191982 16.7000 -125.900 TS 45 0 16.7000 -125.900 2 45 11 309
1982293N09257 1982 95 EP MM TARA 1982-10-24 15:00:00 TS 17.0121 -126.319 main 1665 1662 P_________P___ EP191982 17.0149 -126.338 TS 45 0 17.0036 -126.261 2 45 10 309
1982293N09257 1982 95 EP MM TARA 1982-10-24 18:00:00 TS 17.3017 -126.672 45 hurdat_epa main 1669 1660 O_________P___ hurdat_epa EP191982 17.3000 -126.700 TS 45 0 17.3069 -126.588 2 45 8 315
1982293N09257 1982 95 EP MM TARA 1982-10-24 21:00:00 TS 17.6072 -126.942 main 1660 1660 P_________P___ EP191982 17.6073 -126.958 TS 45 0 17.6068 -126.896 2 45 8 320
1982293N09257 1982 95 EP MM TARA 1982-10-25 00:00:00 TS 17.9000 -127.200 45 hurdat_epa main 1660 1660 O_________O___ hurdat_epa EP191982 17.9000 -127.200 TS 45 0 17.9000 -127.200 2 45 8 314
1982293N09257 1982 95 EP MM TARA 1982-10-25 03:00:00 TS 18.1560 -127.538 main 1660 1660 P_________P___ EP191982 18.1500 -127.543 TS 45 0 18.1739 -127.525 2 42 8 308
1982293N09257 1982 95 EP MM TARA 1982-10-25 06:00:00 TS 18.4106 -127.888 45 hurdat_epa main 1677 1670 O_________P___ hurdat_epa EP191982 18.4000 -127.900 TS 45 0 18.4423 -127.851 2 40 8 311
1982293N09257 1982 95 EP MM TARA 1982-10-25 09:00:00 TS 18.6923 -128.188 main 1680 1680 P_________P___ EP191982 18.6848 -128.193 TS 40 0 18.7145 -128.176 2 37 8 315
1982293N09257 1982 95 EP MM TARA 1982-10-25 12:00:00 TS 19.0000 -128.500 35 hurdat_epa main 1684 1684 O_________O___ hurdat_epa EP191982 19.0000 -128.500 TS 35 0 19.0000 -128.500 2 35 9 314
1982293N09257 1982 95 EP MM TARA 1982-10-25 15:00:00 TS 19.3391 -128.891 main 1697 1690 P_________P___ EP191982 19.3501 -128.907 TS 32 -1 19.3058 -128.842 2 32 10 313
1982293N09257 1982 95 EP MM TARA 1982-10-25 18:00:00 TS 19.6815 -129.270 30 hurdat_epa main 1705 1699 O_________P___ hurdat_epa EP191982 19.7000 -129.300 TD 30 -1 19.6262 -129.181 2 30 9 316
1982293N09257 1982 95 EP MM TARA 1982-10-25 21:00:00 TS 19.9895 -129.556 main 1713 1707 P_________P___ EP191982 19.9998 -129.573 TD 27 -1 19.9584 -129.504 2 27 8 321
1982293N09257 1982 95 EP MM TARA 1982-10-26 00:00:00 TS 20.3000 -129.800 25 hurdat_epa main 1713 1707 O_________O___ hurdat_epa EP191982 20.3000 -129.800 TD 25 -1 20.3000 -129.800 1 25 8 325
1982293N09257 1982 95 EP MM TARA 1982-10-26 03:00:00 TS 20.6403 -130.047 main 1713 1711 P_________P___ EP191982 20.6376 -130.042 TD 25 -1 20.6483 -130.060 1 25 8 326
1982293N09257 1982 95 EP MM TARA 1982-10-26 06:00:00 TS 21.0000 -130.300 25 hurdat_epa main 1718 O_________O___ hurdat_epa EP191982 21.0000 -130.300 TD 25 -1 21.0000 -130.300 1 25 9 326

About IBTrACS Database

This database is a web-friendly format of International Best Track Archive for Climate Stewardship (IBTrACS), a global best track data archive curated by NOAA dating back to 1842.

Updated: 2021-10-21